Terminal Aerodrome Forecast
Issued by NWS

Home | Current Version | Previous Version | Text Only | Print | Product List | Glossary On
Versions: 1 2 3 4 5 6 7 8 9 10 11 12 13 14 15
000
FTUS45 KRIW 021720
TAFRKS
TAF
KRKS 021720Z 0218/0318 24011KT P6SM SKC
     FM021930 24013G22KT P6SM FEW100
     FM030100 23010KT P6SM FEW080 SCT150
     FM030500 17006KT P6SM FEW110=

USA.gov is the U.S. government's official web portal to all federal, state and local government web resources and services.